createdAt,value
2018-06-01T00:02:10.097Z,15.00
2018-06-01T00:07:01.642Z,14.30
2018-06-01T00:11:53.152Z,17.63
2018-06-01T00:16:44.678Z,14.87
2018-06-01T00:21:36.205Z,18.17
2018-06-01T00:26:27.732Z,19.23
2018-06-01T00:31:19.245Z,20.63
2018-06-01T00:36:10.780Z,18.33
2018-06-01T00:41:02.305Z,21.87
2018-06-01T00:45:54.585Z,19.53
2018-06-01T00:50:46.123Z,21.30
2018-06-01T00:55:37.644Z,23.07
2018-06-01T01:00:29.173Z,29.10
2018-06-01T01:05:20.727Z,25.23
2018-06-01T01:10:12.260Z,23.67
2018-06-01T01:15:03.810Z,28.17
2018-06-01T01:19:55.336Z,24.43
2018-06-01T01:24:46.875Z,27.10
2018-06-01T01:29:38.438Z,26.60
2018-06-01T01:34:29.954Z,34.63
2018-06-01T01:39:21.477Z,31.73
2018-06-01T01:44:12.979Z,33.80
2018-06-01T01:49:04.488Z,31.87
2018-06-01T01:53:56.735Z,29.90
2018-06-01T01:58:48.263Z,32.43
2018-06-01T02:03:39.764Z,34.27
2018-06-01T02:08:32.040Z,33.57
2018-06-01T02:13:23.604Z,33.00
2018-06-01T02:18:15.816Z,31.10
2018-06-01T02:23:07.348Z,33.80
2018-06-01T02:27:58.872Z,31.43
2018-06-01T02:32:50.414Z,30.43
2018-06-01T02:37:41.929Z,30.07
2018-06-01T02:42:33.470Z,33.13
2018-06-01T02:47:24.985Z,31.20
2018-06-01T02:52:16.505Z,32.20
2018-06-01T02:57:08.001Z,32.10
2018-06-01T03:01:59.542Z,27.50
2018-06-01T03:07:17.208Z,31.13
2018-06-01T03:12:09.457Z,29.27
2018-06-01T03:17:01.713Z,28.30
2018-06-01T03:21:53.973Z,29.93
2018-06-01T03:26:45.522Z,30.07
2018-06-01T03:31:37.019Z,28.37
2018-06-01T03:36:29.282Z,31.13
2018-06-01T03:41:21.542Z,24.87
2018-06-01T03:46:13.028Z,22.53
2018-06-01T03:51:05.543Z,16.87
2018-06-01T03:55:57.715Z,16.40
2018-06-01T04:00:49.584Z,23.27
2018-06-01T04:05:41.116Z,23.17
2018-06-01T04:10:32.606Z,27.53
2018-06-01T04:15:24.116Z,24.17
2018-06-01T04:20:17.267Z,18.13
2018-06-01T04:25:08.777Z,13.43
2018-06-01T04:30:00.266Z,11.90
2018-06-01T04:34:52.487Z,13.27
2018-06-01T04:39:43.989Z,12.87
2018-06-01T04:44:35.511Z,15.73
2018-06-01T04:49:27.020Z,19.17
2018-06-01T04:54:18.524Z,19.70
2018-06-01T04:59:11.493Z,20.73
2018-06-01T05:04:04.742Z,15.80
2018-06-01T05:08:56.283Z,16.87
2018-06-01T05:13:48.642Z,12.93
2018-06-01T05:18:40.162Z,11.70
2018-06-01T05:23:31.660Z,11.90
2018-06-01T05:28:23.142Z,10.70
2018-06-01T05:33:14.633Z,11.27
2018-06-01T05:38:06.155Z,11.57
2018-06-01T05:42:57.687Z,14.30
2018-06-01T05:47:49.219Z,15.97
2018-06-01T05:52:40.725Z,17.03
2018-06-01T05:57:32.220Z,19.17
2018-06-01T06:02:23.746Z,19.97
2018-06-01T06:07:15.274Z,22.63
2018-06-01T06:12:06.764Z,23.97
2018-06-01T06:16:59.019Z,28.53
2018-06-01T06:21:51.289Z,32.10
2018-06-01T06:26:42.814Z,30.73
2018-06-01T06:31:35.150Z,32.97
2018-06-01T06:36:26.704Z,36.33
2018-06-01T06:41:19.020Z,34.37
2018-06-01T06:46:10.556Z,37.77
2018-06-01T06:51:02.087Z,32.67
2018-06-01T06:55:53.621Z,36.60
2018-06-01T07:00:45.899Z,34.57
2018-06-01T07:05:38.154Z,35.63
2018-06-01T07:10:30.376Z,34.03
2018-06-01T07:15:21.907Z,35.17
2018-06-01T07:20:14.180Z,33.70
2018-06-01T07:25:06.432Z,32.13
2018-06-01T07:29:58.755Z,28.73
2018-06-01T07:34:50.254Z,25.70
2018-06-01T07:39:42.268Z,27.70
2018-06-01T07:44:34.510Z,27.27
2018-06-01T07:49:26.056Z,25.90
2018-06-01T07:54:18.307Z,32.60
2018-06-01T07:59:10.572Z,26.50
2018-06-01T08:04:02.817Z,27.70
2018-06-01T08:08:55.093Z,26.70
2018-06-01T08:13:46.583Z,27.80
2018-06-01T08:18:38.133Z,27.40
2018-06-01T08:23:30.406Z,27.50
2018-06-01T08:28:21.929Z,25.73
2018-06-01T08:33:13.435Z,26.57
2018-06-01T08:38:04.950Z,28.73
2018-06-01T08:42:56.449Z,25.50
2018-06-01T08:47:47.953Z,24.50
2018-06-01T08:52:40.253Z,23.60
2018-06-01T08:57:31.792Z,29.33
2018-06-01T09:02:23.337Z,24.20
2018-06-01T09:07:14.869Z,27.87
2018-06-01T09:12:06.400Z,30.47
2018-06-01T09:16:57.936Z,30.07
2018-06-01T09:21:49.464Z,31.10
2018-06-01T09:26:40.978Z,30.47
2018-06-01T09:31:32.470Z,32.13
2018-06-01T09:36:24.710Z,33.20
2018-06-01T09:41:16.206Z,24.20
2018-06-01T09:46:07.708Z,24.10
2018-06-01T09:50:59.232Z,20.33
2018-06-01T09:55:51.490Z,19.97
2018-06-01T10:00:49.227Z,20.37
2018-06-01T10:05:41.513Z,18.93
2018-06-01T10:10:35.701Z,17.30
2018-06-01T10:15:27.993Z,15.73
2018-06-01T10:20:19.501Z,14.83
2018-06-01T10:25:11.763Z,14.83
2018-06-01T10:30:03.332Z,10.80
2018-06-01T10:34:55.655Z,8.93
2018-06-01T10:39:47.163Z,7.20
2018-06-01T10:44:39.421Z,7.77
2018-06-01T10:49:31.722Z,5.43
2018-06-01T10:54:23.242Z,4.80
2018-06-01T10:59:14.771Z,5.60
2018-06-01T11:04:06.268Z,7.13
2018-06-01T11:08:58.565Z,5.67
2018-06-01T11:13:50.120Z,5.33
2018-06-01T11:18:41.607Z,4.07
2018-06-01T11:23:33.113Z,3.60
2018-06-01T11:28:25.367Z,2.83
2018-06-01T11:33:16.886Z,4.17
2018-06-01T11:38:09.194Z,2.83
2018-06-01T11:43:00.682Z,2.47
2018-06-01T11:47:52.185Z,2.77
2018-06-01T11:52:43.727Z,3.40
2018-06-01T11:57:35.258Z,5.70
2018-06-01T12:02:26.784Z,3.67
2018-06-01T12:07:18.304Z,4.07
2018-06-01T12:12:09.848Z,3.53
2018-06-01T12:17:01.353Z,4.67
2018-06-01T12:21:52.867Z,3.40
2018-06-01T12:26:45.125Z,3.40
2018-06-01T12:31:37.406Z,4.20
2018-06-01T12:36:28.897Z,3.00
2018-06-01T12:41:21.155Z,1.27
2018-06-01T12:46:13.405Z,1.93
2018-06-01T12:51:04.969Z,1.77
2018-06-01T12:55:57.372Z,2.00
2018-06-01T13:00:48.888Z,3.00
2018-06-01T13:05:40.471Z,3.07
2018-06-01T13:10:32.729Z,2.27
2018-06-01T13:15:25.019Z,2.40
2018-06-01T13:20:16.549Z,2.77
2018-06-01T13:25:08.058Z,3.30
2018-06-01T13:29:59.626Z,3.03
2018-06-01T13:34:51.150Z,6.30
2018-06-01T13:39:42.655Z,5.93
2018-06-01T13:44:34.159Z,3.40
2018-06-01T13:49:26.447Z,4.77
2018-06-01T13:54:17.972Z,6.30
2018-06-01T13:59:09.479Z,6.17
2018-06-01T14:04:01.738Z,4.87
2018-06-01T14:08:53.977Z,4.07
2018-06-01T14:13:45.479Z,4.03
2018-06-01T14:18:37.171Z,6.50
2018-06-01T14:23:29.452Z,5.33
2018-06-01T14:28:20.999Z,5.10
2018-06-01T14:33:12.541Z,6.40
2018-06-01T14:38:04.067Z,4.23
2018-06-01T14:42:55.549Z,7.13
2018-06-01T14:47:47.817Z,3.80
2018-06-01T14:52:40.080Z,3.50
2018-06-01T14:57:31.699Z,3.70
2018-06-01T15:02:23.940Z,4.27
2018-06-01T15:07:16.189Z,4.47
2018-06-01T15:12:08.451Z,5.03
2018-06-01T15:17:00.697Z,5.60
2018-06-01T15:21:52.939Z,5.27
2018-06-01T15:26:45.223Z,5.93
2018-06-01T15:31:36.758Z,5.70
2018-06-01T15:36:28.351Z,6.40
2018-06-01T15:41:19.879Z,5.57
2018-06-01T15:46:11.519Z,4.67
2018-06-01T15:51:03.770Z,3.93
2018-06-01T15:55:55.296Z,4.73
2018-06-01T16:00:46.826Z,4.90
2018-06-01T16:05:38.341Z,7.37
2018-06-01T16:10:29.810Z,5.43
2018-06-01T16:15:21.367Z,4.50
2018-06-01T16:20:13.623Z,4.37
2018-06-01T16:25:05.105Z,8.37
2018-06-01T16:29:56.583Z,7.23
2018-06-01T16:34:48.873Z,5.47
2018-06-01T16:39:40.413Z,7.57
2018-06-01T16:44:31.900Z,8.13
2018-06-01T16:49:24.160Z,9.70
2018-06-01T16:54:15.673Z,9.27
2018-06-01T16:59:07.944Z,10.33
2018-06-01T17:04:00.218Z,10.40
2018-06-01T17:08:51.724Z,9.83
2018-06-01T17:13:43.964Z,10.13
2018-06-01T17:18:36.222Z,11.20
2018-06-01T17:23:28.526Z,9.00
2018-06-01T17:28:20.035Z,11.73
2018-06-01T17:33:11.599Z,14.20
2018-06-01T17:38:03.175Z,11.57
2018-06-01T17:42:55.497Z,14.90
2018-06-01T17:47:46.998Z,16.50
2018-06-01T17:52:38.499Z,13.23
2018-06-01T17:57:30.756Z,16.70
2018-06-01T18:02:23.027Z,16.07
2018-06-01T18:07:14.526Z,15.73
2018-06-01T18:12:06.758Z,20.47
2018-06-01T18:16:58.315Z,18.33
2018-06-01T18:21:50.565Z,17.20
2018-06-01T18:26:42.830Z,17.47
2018-06-01T18:31:35.061Z,17.63
2018-06-01T18:36:26.588Z,19.63
2018-06-01T18:41:18.092Z,16.20
2018-06-01T18:46:09.606Z,16.27
2018-06-01T18:51:01.157Z,15.13
2018-06-01T18:55:52.672Z,14.63
2018-06-01T19:00:44.193Z,16.50
2018-06-01T19:05:35.738Z,20.20
2018-06-01T19:10:27.257Z,20.33
2018-06-01T19:15:18.764Z,18.43
2018-06-01T19:20:10.283Z,22.50
2018-06-01T19:25:01.797Z,27.03
2018-06-01T19:29:53.326Z,25.60
2018-06-01T19:34:44.823Z,26.70
2018-06-01T19:39:37.186Z,26.67
2018-06-01T19:44:28.725Z,26.33
2018-06-01T19:49:20.259Z,29.70
2018-06-01T19:54:11.867Z,27.37
2018-06-01T19:59:04.978Z,27.17
2018-06-01T20:03:56.503Z,29.03
2018-06-01T20:08:48.041Z,31.47
2018-06-01T20:13:39.567Z,33.03
2018-06-01T20:18:31.083Z,29.23
2018-06-01T20:23:23.345Z,26.90
2018-06-01T20:28:14.966Z,28.23
2018-06-01T20:33:07.236Z,30.60
2018-06-01T20:37:58.740Z,28.00
2018-06-01T20:42:50.253Z,29.73
2018-06-01T20:47:41.783Z,30.70
2018-06-01T20:52:33.296Z,31.40
2018-06-01T20:57:24.833Z,31.17
2018-06-01T21:02:16.374Z,27.90
2018-06-01T21:07:07.881Z,30.73
2018-06-01T21:11:59.414Z,34.97
2018-06-01T21:16:50.936Z,31.43
2018-06-01T21:21:43.250Z,32.63
2018-06-01T21:26:34.873Z,33.63
2018-06-01T21:31:26.397Z,33.80
2018-06-01T21:36:17.905Z,28.87
2018-06-01T21:41:09.406Z,29.67
2018-06-01T21:46:01.658Z,29.87
2018-06-01T21:50:53.930Z,28.27
2018-06-01T21:55:45.503Z,30.77
2018-06-01T22:00:37.013Z,31.57
2018-06-01T22:05:28.515Z,30.10
2018-06-01T22:10:20.774Z,33.53
2018-06-01T22:15:13.024Z,32.67
2018-06-01T22:20:05.302Z,30.60
2018-06-01T22:24:56.772Z,31.27
2018-06-01T22:29:48.319Z,31.60
2018-06-01T22:34:40.586Z,30.70
2018-06-01T22:39:32.903Z,30.50
2018-06-01T22:44:24.446Z,34.77
2018-06-01T22:49:15.969Z,36.90
2018-06-01T22:54:07.479Z,35.53
2018-06-01T22:58:58.977Z,33.37
2018-06-01T23:03:51.223Z,40.57
2018-06-01T23:08:43.448Z,40.37
2018-06-01T23:13:34.971Z,40.97
2018-06-01T23:18:27.514Z,42.23
2018-06-01T23:23:19.022Z,42.20
2018-06-01T23:28:10.558Z,44.03
2018-06-01T23:33:02.074Z,43.43
2018-06-01T23:37:54.329Z,42.23
2018-06-01T23:42:46.561Z,49.97
2018-06-01T23:47:38.836Z,43.43
2018-06-01T23:52:31.052Z,42.63
2018-06-01T23:57:22.560Z,48.80
